createdAt,value
2022-09-06T00:02:54.445Z,100283.53
2022-09-06T00:05:56.200Z,100275.59
2022-09-06T00:08:59.701Z,100277.69
2022-09-06T00:12:01.427Z,100269.66
2022-09-06T00:15:03.391Z,100267.66
2022-09-06T00:18:07.015Z,100267.44
2022-09-06T00:21:15.658Z,100265.94
2022-09-06T00:24:18.705Z,100272.44
2022-09-06T00:27:20.405Z,100275.66
2022-09-06T00:30:22.517Z,100282.53
2022-09-06T00:33:24.812Z,100277.00
2022-09-06T00:36:26.519Z,100281.75
2022-09-06T00:39:29.629Z,100287.75
2022-09-06T00:42:31.417Z,100289.56
2022-09-06T00:45:33.443Z,100293.00
2022-09-06T00:48:37.294Z,100293.06
2022-09-06T00:51:39.905Z,100282.34
2022-09-06T00:54:43.828Z,100277.28
2022-09-06T00:57:46.558Z,100284.50
2022-09-06T01:00:48.216Z,100279.72
2022-09-06T01:03:49.937Z,100276.66
2022-09-06T01:07:02.545Z,100282.47
2022-09-06T01:10:23.901Z,100280.91
2022-09-06T01:13:34.654Z,100291.28
2022-09-06T01:16:43.547Z,100292.50
2022-09-06T01:20:13.438Z,100302.25
2022-09-06T01:23:52.989Z,100300.06
2022-09-06T01:27:34.369Z,100300.72
2022-09-06T01:30:44.578Z,100306.34
2022-09-06T01:33:51.901Z,100311.00
2022-09-06T01:37:13.458Z,100318.28
2022-09-06T01:40:15.205Z,100375.69
2022-09-06T01:43:23.902Z,100479.38
2022-09-06T01:46:33.405Z,100476.72
2022-09-06T01:49:48.614Z,100474.16
2022-09-06T01:53:02.435Z,100465.59
2022-09-06T01:56:11.328Z,100476.78
2022-09-06T01:59:33.532Z,100468.66
2022-09-06T02:02:50.384Z,100456.16
2022-09-06T02:05:55.618Z,100460.75
2022-09-06T02:09:03.662Z,100444.97
2022-09-06T02:12:06.924Z,100430.63
2022-09-06T02:15:13.432Z,100441.22
2022-09-06T02:18:19.945Z,100433.28
2022-09-06T02:21:32.177Z,100405.75
2022-09-06T02:24:38.739Z,100392.06
2022-09-06T02:27:41.383Z,100374.72
2022-09-06T02:30:49.049Z,100369.19
2022-09-06T02:33:52.344Z,100382.81
2022-09-06T02:36:54.705Z,100392.75
2022-09-06T02:39:56.638Z,100385.88
2022-09-06T02:42:58.484Z,100388.47
2022-09-06T02:46:00.271Z,100400.66
2022-09-06T02:49:03.770Z,100417.84
2022-09-06T02:52:05.646Z,100432.91
2022-09-06T02:55:08.097Z,100437.72
2022-09-06T02:58:11.815Z,100452.16
2022-09-06T03:01:13.814Z,100452.66
2022-09-06T03:04:16.954Z,100418.38
2022-09-06T03:07:18.738Z,100415.34
2022-09-06T03:10:20.937Z,100404.44
2022-09-06T03:13:23.606Z,100400.78
2022-09-06T03:16:25.397Z,100403.44
2022-09-06T03:19:28.410Z,100406.66
2022-09-06T03:22:30.162Z,100424.78
2022-09-06T03:25:31.925Z,100404.44
2022-09-06T03:28:33.902Z,100364.66
2022-09-06T03:31:35.590Z,100322.31
2022-09-06T03:34:38.611Z,100321.72
2022-09-06T03:37:40.338Z,100316.59
2022-09-06T03:40:44.588Z,100310.31
2022-09-06T03:43:46.362Z,100301.69
2022-09-06T03:46:48.129Z,100289.94
2022-09-06T03:49:51.490Z,100279.34
2022-09-06T03:52:53.215Z,100274.59
2022-09-06T03:55:57.541Z,100276.75
2022-09-06T03:58:59.182Z,100274.09
2022-09-06T04:02:01.090Z,100280.66
2022-09-06T04:05:04.706Z,100279.44
2022-09-06T04:08:06.736Z,100277.44
2022-09-06T04:11:08.785Z,100279.13
2022-09-06T04:14:10.457Z,100274.03
2022-09-06T04:17:12.517Z,100275.44
2022-09-06T04:20:16.378Z,100270.69
2022-09-06T04:23:19.504Z,100283.88
2022-09-06T04:26:21.243Z,100275.13
2022-09-06T04:29:23.101Z,100284.94
2022-09-06T04:32:24.792Z,100295.22
2022-09-06T04:35:27.808Z,100288.78
2022-09-06T04:38:34.593Z,100282.69
2022-09-06T04:41:36.391Z,100273.84
2022-09-06T04:44:38.135Z,100272.97
2022-09-06T04:47:40.054Z,100273.25
2022-09-06T04:50:43.948Z,100280.53
2022-09-06T04:53:46.324Z,100277.84
2022-09-06T04:56:48.114Z,100277.47
2022-09-06T04:59:49.840Z,100272.28
2022-09-06T05:02:51.545Z,100278.00
2022-09-06T05:06:04.001Z,100278.91
2022-09-06T05:09:06.007Z,100279.53
2022-09-06T05:12:07.917Z,100288.41
2022-09-06T05:15:10.131Z,100294.28
2022-09-06T05:18:15.554Z,100314.72
2022-09-06T05:21:19.261Z,100320.88
2022-09-06T05:24:21.074Z,100335.06
2022-09-06T05:27:22.771Z,100335.38
2022-09-06T05:30:24.634Z,100341.97
2022-09-06T05:33:26.321Z,100333.31
2022-09-06T05:36:30.568Z,100339.69
2022-09-06T05:39:32.157Z,100342.00
2022-09-06T05:42:34.063Z,100351.63
2022-09-06T05:45:35.914Z,100346.19
2022-09-06T05:48:38.065Z,100352.88
2022-09-06T05:51:41.532Z,100362.28
2022-09-06T05:54:43.236Z,100361.38
2022-09-06T05:57:44.925Z,100366.06
2022-09-06T06:00:46.950Z,100371.75
2022-09-06T06:03:53.906Z,100378.19
2022-09-06T06:06:57.050Z,100377.91
2022-09-06T06:09:58.825Z,100381.47
2022-09-06T06:13:00.571Z,100393.41
2022-09-06T06:16:03.354Z,100388.41
2022-09-06T06:19:05.384Z,100393.66
2022-09-06T06:22:08.527Z,100393.50
2022-09-06T06:25:12.548Z,100404.44
2022-09-06T06:28:14.463Z,100396.88
2022-09-06T06:31:16.573Z,100397.97
2022-09-06T06:34:21.765Z,100399.06
2022-09-06T06:37:24.870Z,100404.38
2022-09-06T06:40:26.588Z,100397.56
2022-09-06T06:43:28.746Z,100405.91
2022-09-06T06:46:32.224Z,100412.13
2022-09-06T06:49:34.011Z,100414.88
2022-09-06T06:52:37.137Z,100418.38
2022-09-06T06:55:39.167Z,100417.91
2022-09-06T06:58:41.218Z,100423.19
2022-09-06T07:01:43.139Z,100430.25
2022-09-06T07:04:44.964Z,100420.75
2022-09-06T07:07:48.071Z,100419.59
2022-09-06T07:10:49.832Z,100425.13
2022-09-06T07:13:51.713Z,100418.00
2022-09-06T07:16:58.190Z,100425.31
2022-09-06T07:20:15.929Z,100434.28
2022-09-06T07:26:41.831Z,100432.16
2022-09-06T07:29:43.698Z,100415.47
2022-09-06T07:32:45.479Z,100429.22
2022-09-06T07:35:58.122Z,100422.13
2022-09-06T07:39:01.480Z,100418.78
2022-09-06T07:42:03.322Z,100418.03
2022-09-06T07:45:05.878Z,100417.44
2022-09-06T07:48:07.632Z,100421.44
2022-09-06T07:51:11.345Z,100413.03
2022-09-06T07:54:31.157Z,100414.97
2022-09-06T07:57:33.239Z,100412.03
2022-09-06T08:00:35.183Z,100418.66
2022-09-06T08:03:36.947Z,100417.25
2022-09-06T08:10:04.350Z,100414.31
2022-09-06T08:13:06.089Z,100418.31
2022-09-06T08:16:09.703Z,100417.41
2022-09-06T08:19:12.385Z,100418.81
2022-09-06T08:22:14.105Z,100413.22
2022-09-06T08:25:17.274Z,100417.59
2022-09-06T08:28:19.002Z,100409.88
2022-09-06T08:31:21.038Z,100412.81
2022-09-06T08:34:22.794Z,100421.38
2022-09-06T08:37:25.270Z,100421.22
2022-09-06T08:40:28.437Z,100422.81
2022-09-06T08:43:30.110Z,100426.66
2022-09-06T08:46:37.517Z,100411.81
2022-09-06T08:49:42.069Z,100418.47
2022-09-06T08:53:15.563Z,100421.84
2022-09-06T08:56:23.219Z,100418.91
2022-09-06T08:59:25.141Z,100412.34
2022-09-06T09:02:28.185Z,100411.81
2022-09-06T09:05:32.947Z,100401.84
2022-09-06T09:08:42.995Z,100398.13
2022-09-06T09:11:49.977Z,100400.75
2022-09-06T09:14:57.469Z,100392.25
2022-09-06T09:18:00.107Z,100383.88
2022-09-06T09:21:02.734Z,100379.78
2022-09-06T09:24:06.958Z,100371.88
2022-09-06T09:27:11.396Z,100371.28
2022-09-06T09:33:38.610Z,100370.16
2022-09-06T09:36:40.871Z,100370.59
2022-09-06T09:39:43.099Z,100374.88
2022-09-06T09:42:46.275Z,100366.66
2022-09-06T09:46:08.676Z,100371.63
2022-09-06T09:49:11.165Z,100357.56
2022-09-06T09:52:14.852Z,100351.63
2022-09-06T09:55:23.371Z,100353.47
2022-09-06T09:58:33.212Z,100354.69
2022-09-06T10:01:36.652Z,100353.81
2022-09-06T10:04:45.885Z,100349.78
2022-09-06T10:07:50.151Z,100350.38
2022-09-06T10:10:52.269Z,100343.63
2022-09-06T10:14:10.755Z,100343.53
2022-09-06T10:17:27.749Z,100351.50
2022-09-06T10:20:35.780Z,100354.50
2022-09-06T10:27:19.473Z,100348.69
2022-09-06T10:30:22.605Z,100349.66
2022-09-06T10:33:33.549Z,100345.13
2022-09-06T10:36:38.450Z,100337.28
2022-09-06T10:39:49.230Z,100342.50
2022-09-06T10:42:55.232Z,100341.53
2022-09-06T10:46:02.577Z,100351.66
2022-09-06T10:49:08.310Z,100334.63
2022-09-06T10:52:15.476Z,100336.16
2022-09-06T10:55:19.425Z,100334.22
2022-09-06T10:58:27.662Z,100330.63
2022-09-06T11:01:38.188Z,100327.34
2022-09-06T11:11:36.021Z,100317.94
2022-09-06T11:14:39.412Z,100320.06
2022-09-06T11:17:47.897Z,100316.28
2022-09-06T11:21:03.262Z,100299.44
2022-09-06T11:24:12.161Z,100308.41
2022-09-06T11:27:22.982Z,100299.25
2022-09-06T11:30:27.016Z,100294.78
2022-09-06T11:33:31.020Z,100295.72
2022-09-06T11:36:36.643Z,100291.94
2022-09-06T11:43:14.803Z,100294.66
2022-09-06T11:46:53.044Z,100291.09
2022-09-06T11:49:56.694Z,100292.25
2022-09-06T11:53:12.772Z,100292.16
2022-09-06T11:56:25.817Z,100276.94
2022-09-06T11:59:36.849Z,100285.31
2022-09-06T12:02:40.796Z,100284.97
2022-09-06T12:06:15.290Z,100269.59
2022-09-06T12:09:27.690Z,100274.81
2022-09-06T12:12:40.688Z,100271.97
2022-09-06T12:15:45.853Z,100274.69
2022-09-06T12:19:01.589Z,100267.78
2022-09-06T12:22:43.295Z,100266.19
2022-09-06T12:25:57.858Z,100258.06
2022-09-06T12:28:59.984Z,100261.22
2022-09-06T12:32:04.596Z,100253.53
2022-09-06T12:38:37.561Z,100248.97
2022-09-06T12:41:43.528Z,100247.72
2022-09-06T12:44:49.774Z,100236.09
2022-09-06T12:48:04.478Z,100238.81
2022-09-06T12:51:07.885Z,100240.88
2022-09-06T12:54:20.433Z,100235.28
2022-09-06T12:57:25.161Z,100231.25
2022-09-06T13:00:34.221Z,100218.03
2022-09-06T13:03:40.242Z,100219.66
2022-09-06T13:06:45.700Z,100220.03
2022-09-06T13:09:52.572Z,100218.63
2022-09-06T13:12:57.154Z,100208.13
2022-09-06T13:15:58.905Z,100204.31
2022-09-06T13:19:12.619Z,100205.84
2022-09-06T13:22:40.254Z,100205.50
2022-09-06T13:25:47.724Z,100202.97
2022-09-06T13:28:49.455Z,100208.72
2022-09-06T13:31:52.623Z,100203.47
2022-09-06T13:34:58.163Z,100197.09
2022-09-06T13:38:22.792Z,100205.16
2022-09-06T13:41:41.272Z,100190.97
2022-09-06T13:44:43.739Z,100195.47
2022-09-06T13:47:45.588Z,100190.59
2022-09-06T13:50:47.316Z,100198.19
2022-09-06T13:53:50.762Z,100195.34
2022-09-06T13:56:52.868Z,100193.50
2022-09-06T13:59:54.529Z,100184.72
2022-09-06T14:02:56.666Z,100186.13
2022-09-06T14:06:00.239Z,100181.94
2022-09-06T14:09:07.239Z,100180.50
2022-09-06T14:12:10.497Z,100175.91
2022-09-06T14:15:13.322Z,100182.28
2022-09-06T14:18:15.862Z,100183.50
2022-09-06T14:21:17.686Z,100175.53
2022-09-06T14:24:20.929Z,100174.78
2022-09-06T14:27:23.134Z,100163.00
2022-09-06T14:30:24.959Z,100175.63
2022-09-06T14:33:26.689Z,100156.53
2022-09-06T14:36:29.956Z,100160.91
2022-09-06T14:39:33.211Z,100144.78
2022-09-06T14:42:35.008Z,100147.63
2022-09-06T14:45:37.184Z,100147.59
2022-09-06T14:48:42.091Z,100157.41
2022-09-06T14:51:45.906Z,100148.31
2022-09-06T14:54:49.156Z,100143.56
2022-09-06T14:57:51.026Z,100130.28
2022-09-06T15:00:52.911Z,100132.06
2022-09-06T15:03:57.531Z,100133.06
2022-09-06T15:06:59.937Z,100130.25
2022-09-06T15:10:03.727Z,100134.47
2022-09-06T15:13:05.502Z,100124.50
2022-09-06T15:16:09.215Z,100120.16
2022-09-06T15:19:10.898Z,100117.44
2022-09-06T15:22:12.688Z,100121.06
2022-09-06T15:25:16.216Z,100125.44
2022-09-06T15:28:19.327Z,100116.38
2022-09-06T15:31:21.730Z,100114.53
2022-09-06T15:34:25.471Z,100102.63
2022-09-06T15:37:27.327Z,100107.13
2022-09-06T15:40:30.553Z,100108.94
2022-09-06T15:43:32.848Z,100119.59
2022-09-06T15:46:44.561Z,100119.41
2022-09-06T15:49:46.390Z,100111.25
2022-09-06T15:52:48.252Z,100103.97
2022-09-06T15:55:57.972Z,100091.81
2022-09-06T15:58:59.896Z,100097.22
2022-09-06T16:02:01.829Z,100096.25
2022-09-06T16:05:04.202Z,100089.59
2022-09-06T16:08:06.008Z,100081.19
2022-09-06T16:11:11.739Z,100084.69
2022-09-06T16:14:15.763Z,100089.94
2022-09-06T16:17:17.589Z,100092.47
2022-09-06T16:20:19.382Z,100096.75
2022-09-06T16:23:21.213Z,100103.19
2022-09-06T16:26:25.763Z,100086.91
2022-09-06T16:29:27.601Z,100090.31
2022-09-06T16:32:29.349Z,100089.22
2022-09-06T16:35:31.139Z,100089.41
2022-09-06T16:38:33.665Z,100085.72
2022-09-06T16:41:40.461Z,100095.47
2022-09-06T16:44:42.510Z,100095.69
2022-09-06T16:47:46.423Z,100099.56
2022-09-06T16:50:48.004Z,100093.63
2022-09-06T16:53:50.404Z,100097.25
2022-09-06T16:56:53.751Z,100095.22
2022-09-06T16:59:55.600Z,100094.78
2022-09-06T17:02:58.568Z,100096.16
2022-09-06T17:06:00.407Z,100100.19
2022-09-06T17:09:02.285Z,100088.00
2022-09-06T17:12:05.881Z,100095.50
2022-09-06T17:15:08.544Z,100089.59
2022-09-06T17:18:11.859Z,100081.84
2022-09-06T17:21:13.884Z,100087.22
2022-09-06T17:24:15.921Z,100089.59
2022-09-06T17:27:19.379Z,100096.50
2022-09-06T17:30:21.304Z,100089.75
2022-09-06T17:33:23.828Z,100097.47
2022-09-06T17:36:27.617Z,100110.50
2022-09-06T17:39:29.542Z,100101.88
2022-09-06T17:42:32.912Z,100121.16
2022-09-06T17:45:39.132Z,100123.72
2022-09-06T17:48:41.069Z,100125.59
2022-09-06T17:51:42.830Z,100116.94
2022-09-06T17:54:46.597Z,100123.59
2022-09-06T17:57:49.841Z,100110.72
2022-09-06T18:00:51.817Z,100114.63
2022-09-06T18:03:53.646Z,100125.88
2022-09-06T18:06:55.559Z,100113.00
2022-09-06T18:09:57.335Z,100107.94
2022-09-06T18:13:00.489Z,100112.69
2022-09-06T18:16:03.712Z,100122.03
2022-09-06T18:19:07.609Z,100120.75
2022-09-06T18:22:09.347Z,100119.63
2022-09-06T18:25:11.111Z,100117.75
2022-09-06T18:28:14.722Z,100111.34
2022-09-06T18:31:18.136Z,100103.56
2022-09-06T18:34:19.980Z,100093.44
2022-09-06T18:37:22.153Z,100096.75
2022-09-06T18:40:24.011Z,100090.13
2022-09-06T18:43:30.625Z,100096.16
2022-09-06T18:46:36.111Z,100097.16
2022-09-06T18:49:43.293Z,100087.31
2022-09-06T18:52:45.861Z,100084.19
2022-09-06T18:55:50.961Z,100088.00
2022-09-06T18:58:58.047Z,100084.28
2022-09-06T19:01:59.923Z,100082.25
2022-09-06T19:05:01.720Z,100082.25
2022-09-06T19:08:04.711Z,100085.25
2022-09-06T19:11:09.284Z,100088.41
2022-09-06T19:14:12.901Z,100091.84
2022-09-06T19:17:14.705Z,100090.16
2022-09-06T19:20:16.974Z,100092.69
2022-09-06T19:23:19.305Z,100081.31
2022-09-06T19:26:22.432Z,100080.81
2022-09-06T19:29:25.611Z,100076.81
2022-09-06T19:32:27.919Z,100075.50
2022-09-06T19:35:29.677Z,100066.88
2022-09-06T19:38:52.573Z,100067.53
2022-09-06T19:41:53.532Z,100068.28
2022-09-06T19:44:56.626Z,100062.31
2022-09-06T19:47:58.433Z,100060.94
2022-09-06T19:51:01.121Z,100048.03
2022-09-06T19:54:03.858Z,100042.53
2022-09-06T19:57:06.198Z,100040.97
2022-09-06T20:00:10.737Z,100038.66
2022-09-06T20:03:14.202Z,100039.69
2022-09-06T20:06:16.213Z,100032.53
2022-09-06T20:09:18.068Z,100014.78
2022-09-06T20:12:20.633Z,100013.25
2022-09-06T20:15:23.783Z,100015.84
2022-09-06T20:18:25.999Z,100010.00
2022-09-06T20:21:28.075Z,100002.59
2022-09-06T20:24:29.953Z,100002.31
2022-09-06T20:27:31.742Z,100000.66
2022-09-06T20:30:34.887Z,99999.31
2022-09-06T20:33:37.273Z,99996.91
2022-09-06T20:36:39.019Z,99994.38
2022-09-06T20:39:40.937Z,99990.41
2022-09-06T20:42:45.839Z,100000.25
2022-09-06T20:45:50.188Z,99999.22
2022-09-06T20:48:52.264Z,100005.19
2022-09-06T20:51:54.061Z,100009.63
2022-09-06T20:54:55.834Z,99996.44
2022-09-06T20:57:57.596Z,100010.38
2022-09-06T21:01:06.314Z,100012.53
2022-09-06T21:04:10.780Z,100015.72
2022-09-06T21:07:12.525Z,100007.41
2022-09-06T21:10:14.741Z,100013.13
2022-09-06T21:13:16.595Z,100007.78
2022-09-06T21:16:24.220Z,100004.47
2022-09-06T21:19:26.568Z,99994.38
2022-09-06T21:22:28.342Z,99992.84
2022-09-06T21:25:30.267Z,99995.53
2022-09-06T21:28:34.473Z,100004.44
2022-09-06T21:31:37.886Z,100000.66
2022-09-06T21:34:39.693Z,99994.22
2022-09-06T21:37:41.432Z,99999.53
2022-09-06T21:40:43.409Z,99992.00
2022-09-06T21:43:46.118Z,99988.47
2022-09-06T21:46:49.504Z,99985.09
2022-09-06T21:49:51.676Z,99994.72
2022-09-06T21:52:53.803Z,100000.13
2022-09-06T21:56:00.140Z,100010.03
2022-09-06T21:59:02.673Z,100000.19
2022-09-06T22:02:06.428Z,100009.63
2022-09-06T22:05:08.859Z,100009.38
2022-09-06T22:08:10.635Z,100011.88
2022-09-06T22:11:15.353Z,100018.09
2022-09-06T22:14:17.163Z,100009.00
2022-09-06T22:17:20.330Z,100003.47
2022-09-06T22:20:22.766Z,99996.25
2022-09-06T22:23:25.089Z,100000.97
2022-09-06T22:26:28.580Z,99991.28
2022-09-06T22:29:30.492Z,99989.84
2022-09-06T22:32:33.772Z,99989.72
2022-09-06T22:35:35.566Z,99986.69
2022-09-06T22:38:37.600Z,99987.94
2022-09-06T22:41:39.520Z,99986.34
2022-09-06T22:44:41.217Z,99985.09
2022-09-06T22:47:44.302Z,99961.09
2022-09-06T22:50:46.127Z,99950.00
2022-09-06T22:53:47.909Z,99947.16
2022-09-06T22:56:49.849Z,99947.25
2022-09-06T22:59:51.565Z,99967.63
2022-09-06T23:02:54.767Z,99984.19
2022-09-06T23:06:00.432Z,99982.06
2022-09-06T23:09:02.194Z,99985.91
2022-09-06T23:12:05.063Z,99974.88
2022-09-06T23:15:07.652Z,99969.28
2022-09-06T23:18:10.869Z,99966.56
2022-09-06T23:21:14.626Z,99958.97
2022-09-06T23:24:16.334Z,99951.53
2022-09-06T23:27:18.216Z,99946.78
2022-09-06T23:30:20.278Z,99949.75
2022-09-06T23:33:23.445Z,99958.41
2022-09-06T23:36:26.161Z,99955.94
2022-09-06T23:39:28.497Z,99957.22
2022-09-06T23:42:30.284Z,99964.38
2022-09-06T23:45:31.959Z,99966.22
2022-09-06T23:48:35.701Z,99975.63
2022-09-06T23:51:37.560Z,99976.34
2022-09-06T23:54:39.306Z,99967.69
2022-09-06T23:57:41.068Z,99984.41
